Kalispell, MT

4:52 PM MDT on July 25, 2016 (GMT -0600)
Trap Road | | Change Station

Elev 3084 ft 48.30 °N, 114.19 °W | Updated 9 minutes ago

Partly Cloudy
Partly Cloudy
89.5 °F
Feels Like 86 °F
N
0.0
Wind Variable Wind from SSE
Gusts 1.0 mph

Today
High -- | Low -- °F
--% Chance of Precip.
Yesterday
High -- | Low -- °F
Precip. -- in
Pressure 30.03 in
Visibility 10.0 miles
Clouds Few 6500 ft
Heat Index 86 °F
Dew Point 48 °F
Humidity 24%
Rainfall 0.00 in
Snow Depth Not available.
6:04 AM 9:22 PM
Waning Gibbous, 61% visible
METAR KCTB 252156Z AUTO 02008G16KT 10SM FEW065 27/10 A3011 RMK AO2 SLP167 T02720100
Pressure 30.03 in
Visibility 10.0 miles
Clouds Few 6500 ft
Heat Index 86 °F
Dew Point 48 °F
Humidity 24%
Rainfall 0.00 in
Snow Depth Not available.
6:04 AM 9:22 PM
Waning Gibbous, 61% visible
METAR KCTB 252156Z AUTO 02008G16KT 10SM FEW065 27/10 A3011 RMK AO2 SLP167 T02720100

10-Day Weather Forecast

Almanac

Astronomy

Jul. 25, 2016 Rise Set
Actual Time
Civil Twilight
Nautical Twilight
Astronomical Twilight
Moon
Length of Visible Light
Length of Day
Tomorrow will be .
, % of the Moon is Illuminated

Today's Extremes

State Highs State Lows

Community

WunderPhotos

Upload Photos

1,927,436 photos uploaded!

WunderBlog® & News

Nearby

Air Quality

  Air Quality AQ Index Pollutant
Not available.

Snow Depth

Station Depth Elevation

Earthquake Activity

City Distance Mag. Time & Date
Minimum magnitude displayed is 2.5.

Coastal Water Temperatures

Place Temperature

Stations

Nearby Weather Stations

Station Location Temp. Windchill Dew Point Humidity Wind Precip. Elev Updated Type
                   

Watches & Warnings

There are currently no watches in effect.